CheckWX is a tool to help pilots better visualize weather data.  It is not intended as a substitute for an official pre-flight weather briefing.

18:42:31 UTC

KRYY TAF
Cobb County International-McCollum Field Airport
Atlanta, Georgia, USA
KRYY 171730Z 1718/1818 33009G16KT P6SM SCT250 FM180000 33004KT P6SM SCT250 FM181000 01003KT P6SM SCT250 FM181400 09006KT P6SM SCT250

Oct-17@
18:00 UTC

Oct-17 @ 18:00 UTC

Oct-18@
00:00 UTC

Oct-18 @ 00:00 UTC

KRYY 171730Z 1718/1818 33009G16KT P6SM SCT250
Wind
  • 330° at 9 KTS
  • {Gusting to 16 KTS
Cloud Levels
  • Scattered at 25,000' AGL

Oct-18@
00:00 UTC

Oct-18 @ 00:00 UTC

Oct-18@
10:00 UTC

Oct-18 @ 10:00 UTC

FM180000 33004KT P6SM SCT250

From

From Standard forecast or significant change

Wind
  • 330° at 4 KTS
Cloud Levels
  • Scattered at 25,000' AGL

Oct-18@
10:00 UTC

Oct-18 @ 10:00 UTC

Oct-18@
14:00 UTC

Oct-18 @ 14:00 UTC

FM181000 01003KT P6SM SCT250

From

From Standard forecast or significant change

Wind
  • 010° at 3 KTS
Cloud Levels
  • Scattered at 25,000' AGL

Oct-18@
14:00 UTC

Oct-18 @ 14:00 UTC

Oct-18@
18:00 UTC

Oct-18 @ 18:00 UTC

FM181400 09006KT P6SM SCT250

From

From Standard forecast or significant change

Wind
  • 090° at 6 KTS
Cloud Levels
  • Scattered at 25,000' AGL